Time;durP1;ratioP1;P1;durP2;ratioP2;P2;SDS_P1;SDS_P2;PMS_P1;PMS_P2;Temp;Humidity;BMP_temperature;BMP_pressure;BME280_temperature;BME280_humidity;BME280_pressure;Samples;Min_cycle;Max_cycle;Signal;HPM_P1;HPM_P2
2023/03/25 00:00:19;;;;;;;6.07;4.17;;;10.20;99.90;;;-141.84;73.66;19685.81;5069944;28;20224;-58
2023/03/25 00:02:52;;;;;;;5.97;3.60;;;10.20;99.90;;;-141.84;72.86;19693.94;5069991;28;20713;-58
2023/03/25 00:05:22;;;;;;;5.47;3.70;;;10.20;99.90;;;-141.84;73.62;19698.00;5069815;28;20217;-57
2023/03/25 00:07:52;;;;;;;5.60;3.87;;;10.20;99.90;;;-141.84;72.84;19698.00;5070705;28;20200;-58
2023/03/25 00:10:20;;;;;;;4.73;3.87;;;10.30;99.90;;;-141.84;74.45;19671.56;5070231;28;20228;-57
2023/03/25 00:12:48;;;;;;;5.00;3.53;;;10.20;99.90;;;-141.84;74.17;19691.91;5069963;28;20604;-56
2023/03/25 00:15:17;;;;;;;6.43;3.67;;;10.10;99.90;;;-141.84;74.98;19651.25;5069764;28;20224;-57
2023/03/25 00:17:45;;;;;;;4.20;3.80;;;10.10;99.90;;;-141.84;75.79;19651.25;5070332;28;20295;-57
2023/03/25 00:20:14;;;;;;;5.13;4.13;;;10.10;99.90;;;-141.84;75.56;19663.44;5069688;28;20299;-55
2023/03/25 00:22:43;;;;;;;4.70;3.70;;;10.10;99.90;;;-141.84;75.28;19687.84;5070442;28;20224;-56
2023/03/25 00:25:16;;;;;;;5.07;3.50;;;9.90;99.90;;;-141.84;74.51;19695.97;5070003;28;20620;-56
2023/03/25 00:27:46;;;;;;;4.63;3.73;;;10.10;99.90;;;-141.84;73.97;19693.94;5069593;28;20237;-55
2023/03/25 00:30:17;;;;;;;7.67;3.73;;;10.10;99.90;;;-141.84;73.45;19700.03;5069349;28;20286;-56
2023/03/25 00:32:48;;;;;;;6.33;3.73;;;10.20;99.90;;;-141.84;74.24;19675.63;5070031;28;20224;-56
2023/03/25 00:35:19;;;;;;;3.97;3.20;;;10.20;99.90;;;-141.84;73.61;19728.47;5069738;28;20231;-55
2023/03/25 00:37:56;;;;;;;5.13;3.23;;;10.10;99.90;;;-141.84;73.56;19740.69;5070235;28;20235;-55
2023/03/25 00:40:24;;;;;;;4.47;3.40;;;10.10;99.90;;;-141.84;74.45;19681.75;5070241;28;20215;-56
2023/03/25 00:42:52;;;;;;;4.13;3.47;;;10.10;99.90;;;-141.84;73.66;19693.94;5071215;28;20224;-56
2023/03/25 00:45:21;;;;;;;4.23;3.50;;;10.10;99.90;;;-141.84;73.59;19732.53;5073400;28;20224;-55
2023/03/25 00:47:49;;;;;;;4.00;3.60;;;10.10;99.90;;;-141.84;73.19;19728.47;5073758;28;20224;-56
2023/03/25 00:50:20;;;;;;;6.30;3.50;;;10.20;99.90;;;-141.84;72.26;19752.88;5073825;28;20246;-57
2023/03/25 00:52:49;;;;;;;4.73;3.60;;;10.20;99.90;;;-141.84;72.58;19738.66;5074328;28;20196;-54
2023/03/25 00:55:17;;;;;;;3.90;3.60;;;10.10;99.90;;;-141.84;73.71;19685.81;5073461;28;20224;-56
2023/03/25 00:57:45;;;;;;;3.87;3.43;;;10.10;99.90;;;-141.84;74.37;19681.75;5073394;28;20240;-55
2023/03/25 01:00:17;;;;;;;5.23;3.50;;;10.00;99.90;;;-141.84;74.45;19651.25;5073162;28;20598;-55
2023/03/25 01:02:45;;;;;;;3.70;3.40;;;10.00;99.90;;;-141.84;73.63;19669.53;5073278;28;20228;-55
2023/03/25 01:05:14;;;;;;;5.40;3.03;;;10.00;99.90;;;-141.84;73.27;19689.88;5072927;28;20266;-58
2023/03/25 01:07:44;;;;;;;4.00;3.30;;;10.00;99.90;;;-141.84;71.96;19754.91;5074094;28;20201;-55
2023/03/25 01:10:12;;;;;;;5.53;3.77;;;10.20;99.90;;;-141.84;72.20;19738.66;5073530;28;20231;-55
2023/03/25 01:12:40;;;;;;;5.93;3.13;;;10.20;99.90;;;-141.84;73.42;19700.03;5073276;28;20240;-54
2023/03/25 01:15:11;;;;;;;5.10;3.00;;;10.20;99.90;;;-141.84;73.81;19667.50;5072976;28;20228;-57
2023/03/25 01:17:40;;;;;;;5.23;3.10;;;10.10;99.90;;;-141.84;71.71;19722.38;5073508;28;20239;-52
2023/03/25 01:20:09;;;;;;;3.30;2.93;;;10.20;99.90;;;-141.84;71.62;19708.16;5072988;28;20589;-58
2023/03/25 01:22:38;;;;;;;4.60;3.13;;;10.20;99.90;;;-141.84;70.87;19730.50;5073162;28;20583;-58
2023/03/25 01:25:08;;;;;;;4.77;2.97;;;10.30;99.90;;;-141.84;72.04;19712.22;5072659;28;20225;-56
2023/03/25 01:27:36;;;;;;;4.37;2.83;;;10.30;99.90;;;-141.84;72.21;19700.03;5072878;28;20235;-54
2023/03/25 01:30:05;;;;;;;5.03;2.83;;;10.20;99.90;;;-141.84;70.59;19756.94;5072602;28;20224;-56
2023/03/25 01:32:34;;;;;;;3.27;2.43;;;10.30;99.90;;;-141.84;70.20;19742.72;5072911;28;20223;-55
2023/03/25 01:35:03;;;;;;;3.83;2.67;;;10.40;99.90;;;-141.84;69.86;19746.78;5072756;28;20201;-56
2023/03/25 01:37:35;;;;;;;3.57;2.40;;;10.40;99.90;;;-141.84;69.69;19718.31;5073166;28;20201;-55
2023/03/25 01:40:07;;;;;;;3.93;2.57;;;10.40;99.90;;;-141.84;70.08;19724.41;5072630;28;20618;-58
2023/03/25 01:42:36;;;;;;;3.33;2.20;;;10.40;99.90;;;-141.84;70.08;19752.88;5072467;28;20719;-53
2023/03/25 01:45:26;;;;;;;3.97;2.07;;;10.70;99.90;;;-141.84;69.46;19750.84;5072382;28;20236;-56
2023/03/25 01:48:04;;;;;;;3.43;2.40;;;10.50;99.90;;;-141.84;69.94;19736.59;5072361;28;20588;-59
2023/03/25 01:50:36;;;;;;;4.10;2.70;;;10.40;99.90;;;-141.84;69.18;19777.25;5072793;28;20224;-55
2023/03/25 01:53:07;;;;;;;3.87;2.20;;;10.40;99.90;;;-141.84;69.88;19724.41;5071938;28;20668;-59
2023/03/25 01:55:38;;;;;;;3.57;2.10;;;10.40;99.90;;;-141.84;69.50;19716.28;5073045;28;20211;-56
2023/03/25 01:58:16;;;;;;;2.47;2.13;;;10.40;99.90;;;-141.84;70.07;19724.41;5072105;28;20229;-56
2023/03/25 02:00:47;;;;;;;3.10;2.17;;;10.40;99.90;;;-141.84;69.94;19728.47;5072348;28;20784;-56
2023/03/25 02:03:19;;;;;;;3.00;2.10;;;10.40;99.90;;;-141.84;69.71;19718.31;5072167;28;20719;-56
2023/03/25 02:05:56;;;;;;;6.60;2.10;;;10.30;99.90;;;-141.84;69.15;19744.75;5071972;28;20232;-54
2023/03/25 02:08:26;;;;;;;3.83;2.30;;;10.40;99.90;;;-141.84;68.35;19742.72;5072544;28;20224;-54
2023/03/25 02:10:54;;;;;;;6.13;2.50;;;10.50;99.90;;;-141.84;68.31;19777.25;5072855;28;20205;-55
2023/03/25 02:13:25;;;;;;;2.83;1.93;;;10.50;99.90;;;-141.84;67.73;19736.59;5072637;28;20593;-56
2023/03/25 02:16:20;;;;;;;4.00;2.30;;;10.50;99.90;;;-141.84;66.84;19773.19;5072054;28;20229;-56
2023/03/25 02:19:05;;;;;;;4.17;2.57;;;10.60;99.90;;;-141.84;67.70;19748.81;5036272;28;20659;-58
2023/03/25 02:22:37;;;;;;;4.00;2.20;;;10.50;99.90;;;-141.84;67.42;19765.06;5071674;28;20232;-54
2023/03/25 02:26:07;;;;;;;2.67;2.00;;;10.50;99.90;;;-141.84;67.59;19761.00;5071862;28;20692;-57
2023/03/25 02:28:46;;;;;;;3.20;2.27;;;10.50;99.90;;;-141.84;67.47;19771.16;5009473;28;20246;-55
2023/03/25 02:31:47;;;;;;;2.50;2.17;;;10.50;99.90;;;-141.84;67.27;19761.00;5009459;28;20234;-57
2023/03/25 02:34:47;;;;;;;4.03;2.60;;;10.60;99.90;;;-141.84;67.59;19785.38;5056198;28;20223;-59
2023/03/25 02:38:08;;;;;;;3.40;2.30;;;10.50;99.90;;;-141.84;68.42;19758.97;5071460;28;20324;-56
2023/03/25 02:40:46;;;;;;;6.20;2.50;;;10.50;99.90;;;-141.84;68.25;19748.81;5072118;28;20216;-55
2023/03/25 02:43:23;;;;;;;4.40;2.57;;;10.50;99.90;;;-141.84;68.90;19724.41;5071254;28;20646;-54
2023/03/25 02:45:57;;;;;;;6.10;2.83;;;10.40;99.90;;;-141.84;68.87;19700.03;5071234;28;20233;-55
2023/03/25 02:48:35;;;;;;;5.13;2.50;;;10.40;99.90;;;-141.84;69.34;19728.47;5071299;28;20278;-57
2023/03/25 02:51:12;;;;;;;4.40;2.70;;;10.30;99.90;;;-141.84;69.89;19700.03;5071589;28;20224;-56
2023/03/25 02:53:48;;;;;;;6.07;2.87;;;10.30;99.90;;;-141.84;70.38;19716.28;5071354;28;20227;-55
2023/03/25 02:56:21;;;;;;;4.73;3.10;;;10.20;99.90;;;-141.84;70.07;19724.41;5071313;28;20234;-56
2023/03/25 02:58:55;;;;;;;4.57;2.80;;;10.20;99.90;;;-141.84;69.15;19722.38;5071409;28;20208;-53
2023/03/25 03:01:25;;;;;;;4.87;2.90;;;10.20;99.90;;;-141.84;69.33;19734.56;5071729;28;20572;-56
2023/03/25 03:03:55;;;;;;;4.17;2.90;;;10.30;99.90;;;-141.84;69.13;19726.44;5070948;28;20235;-55
2023/03/25 03:06:25;;;;;;;6.10;2.70;;;10.30;99.90;;;-141.84;69.72;19736.59;5070177;28;20682;-54
2023/03/25 03:09:24;;;;;;;6.33;2.90;;;10.30;99.90;;;-141.84;69.96;19720.34;5071138;28;20232;-57
2023/03/25 03:12:09;;;;;;;3.00;2.60;;;10.20;99.90;;;-141.84;69.01;19732.53;5071041;28;20229;-58
2023/03/25 03:15:05;;;;;;;4.63;2.60;;;10.30;99.90;;;-141.84;69.52;19728.47;5070789;28;20238;-55
2023/03/25 03:17:48;;;;;;;3.50;2.30;;;10.30;99.90;;;-141.84;69.36;19736.59;5070536;28;20228;-57
2023/03/25 03:20:31;;;;;;;5.53;2.70;;;10.30;99.90;;;-141.84;69.62;19710.19;5070496;28;20228;-55
2023/03/25 03:23:12;;;;;;;4.03;2.83;;;10.30;99.90;;;-141.84;69.71;19744.75;5070449;28;20757;-57
2023/03/25 03:25:50;;;;;;;3.57;2.50;;;10.30;99.90;;;-141.84;69.87;19702.06;5071146;28;20204;-54
2023/03/25 03:28:28;;;;;;;3.83;2.90;;;10.30;99.90;;;-141.84;69.59;19726.44;5070179;28;20225;-55
2023/03/25 03:31:07;;;;;;;3.33;2.93;;;10.30;99.90;;;-141.84;69.64;19732.53;5070382;28;20232;-54
2023/03/25 03:33:43;;;;;;;4.47;2.93;;;10.30;99.90;;;-141.84;69.31;19728.47;5070455;28;20224;-55
2023/03/25 03:36:17;;;;;;;4.73;2.80;;;10.30;99.90;;;-141.84;69.63;19736.59;5070586;28;20774;-56
2023/03/25 03:38:51;;;;;;;3.73;2.50;;;10.30;99.90;;;-141.84;69.19;19738.66;5070544;28;20597;-57
2023/03/25 03:41:26;;;;;;;3.37;2.63;;;10.30;99.90;;;-141.84;69.67;19724.41;5070237;28;20222;-56
2023/03/25 03:44:03;;;;;;;5.90;2.67;;;10.30;99.90;;;-141.84;68.99;19763.03;5070951;28;20259;-55
2023/03/25 03:46:40;;;;;;;3.70;2.47;;;10.40;99.90;;;-141.84;68.68;19748.81;5070427;28;20220;-55
2023/03/25 03:49:16;;;;;;;4.57;2.70;;;10.40;99.90;;;-141.84;69.26;19710.19;5070385;28;20228;-54
2023/03/25 03:51:52;;;;;;;3.43;2.00;;;10.40;99.90;;;-141.84;68.96;19740.69;5070442;28;20227;-56
2023/03/25 03:54:26;;;;;;;3.67;2.20;;;10.40;99.90;;;-141.84;68.83;19726.44;5070295;28;20636;-54
2023/03/25 03:57:01;;;;;;;4.20;2.60;;;10.40;99.90;;;-141.84;67.21;19765.06;5068576;28;20785;-54
2023/03/25 03:59:41;;;;;;;3.80;1.83;;;10.40;99.90;;;-141.84;66.08;19791.47;5058909;28;20228;-56
2023/03/25 04:02:22;;;;;;;3.23;1.60;;;10.50;99.90;;;-141.84;66.44;19761.00;5050532;28;20182;-53
2023/03/25 04:04:52;;;;;;;3.27;1.70;;;10.60;99.90;;;-141.84;66.24;19785.38;5052739;28;20208;-57
2023/03/25 04:07:29;;;;;;;3.00;1.80;;;10.60;99.90;;;-141.84;65.61;19777.25;5070584;28;20220;-54
2023/03/25 04:10:05;;;;;;;4.20;1.87;;;10.60;99.90;;;-141.84;65.72;19777.25;5070200;28;20220;-57
2023/03/25 04:12:41;;;;;;;2.77;1.73;;;10.70;99.90;;;-141.84;65.54;19779.28;5070123;28;20231;-55
2023/03/25 04:15:10;;;;;;;2.17;1.50;;;10.60;99.90;;;-141.84;64.45;19793.50;5069731;28;20225;-56
2023/03/25 04:17:39;;;;;;;2.53;1.60;;;10.70;99.90;;;-141.84;64.53;19767.09;5069847;28;20224;-58
2023/03/25 04:20:10;;;;;;;3.03;1.50;;;10.70;99.90;;;-141.84;64.34;19791.47;5070029;28;20209;-56
2023/03/25 04:22:44;;;;;;;1.70;1.00;;;10.60;99.90;;;-141.84;62.64;19832.13;5070300;28;20233;-57
2023/03/25 04:25:13;;;;;;;1.33;1.10;;;10.70;99.90;;;-141.84;62.63;19809.78;5069770;28;20221;-56
2023/03/25 04:27:47;;;;;;;1.30;0.90;;;10.70;99.90;;;-141.84;62.17;19801.66;5069653;28;20312;-56
2023/03/25 04:30:17;;;;;;;1.10;1.00;;;10.70;99.90;;;-141.84;61.88;19811.81;5069425;28;20708;-56
2023/03/25 04:32:47;;;;;;;1.80;0.80;;;10.70;99.90;;;-141.84;62.08;19824.00;5070101;28;20240;-55
2023/03/25 04:35:17;;;;;;;0.87;0.50;;;10.70;99.90;;;-141.84;61.56;19819.94;5070262;28;20250;-58
2023/03/25 04:37:47;;;;;;;1.50;0.73;;;10.70;99.90;;;-141.84;62.01;19789.44;5070682;28;20272;-56
2023/03/25 04:40:17;;;;;;;0.70;0.60;;;10.60;99.90;;;-141.84;61.68;19779.28;5069749;28;20724;-55
2023/03/25 04:42:48;;;;;;;0.80;0.60;;;10.60;99.90;;;-141.84;61.10;19813.84;5069372;28;20263;-57
2023/03/25 04:45:16;;;;;;;0.80;0.60;;;10.60;99.90;;;-141.84;60.61;19793.50;5069606;28;20224;-58
2023/03/25 04:47:48;;;;;;;1.40;0.70;;;10.60;99.90;;;-141.84;60.60;19821.97;5069845;28;20330;-56
2023/03/25 04:50:21;;;;;;;0.70;0.70;;;10.60;99.90;;;-141.84;60.65;19807.75;5069539;28;21221;-55
2023/03/25 04:52:51;;;;;;;1.03;0.60;;;10.60;99.90;;;-141.84;61.15;19801.66;5070409;28;20223;-55
2023/03/25 04:55:20;;;;;;;0.70;0.70;;;10.60;99.90;;;-141.84;61.14;19809.78;5069827;28;20229;-56
2023/03/25 04:57:53;;;;;;;1.00;0.60;;;10.60;99.90;;;-141.84;61.19;19789.44;5069592;28;20315;-55
2023/03/25 05:00:24;;;;;;;0.93;0.50;;;10.50;99.90;;;-141.84;61.37;19789.44;5069557;28;20232;-56
2023/03/25 05:02:55;;;;;;;0.60;0.60;;;10.50;99.90;;;-141.84;61.64;19803.69;5069790;28;20225;-56
2023/03/25 05:05:25;;;;;;;1.17;0.53;;;10.50;99.90;;;-141.84;61.70;19756.94;5069261;28;20259;-55
2023/03/25 05:07:56;;;;;;;1.23;0.50;;;10.50;99.90;;;-141.84;61.67;19785.38;5069927;28;20208;-57
2023/03/25 05:10:28;;;;;;;1.70;0.60;;;10.40;99.90;;;-141.84;60.82;19809.78;5069761;28;20217;-56
2023/03/25 05:13:02;;;;;;;2.20;0.70;;;10.50;99.90;;;-141.84;61.47;19793.50;5069549;28;20273;-55
2023/03/25 05:15:34;;;;;;;0.73;0.60;;;10.50;99.90;;;-141.84;60.80;19781.31;5069428;28;20232;-55
2023/03/25 05:18:02;;;;;;;2.40;0.60;;;10.50;99.90;;;-141.84;61.24;19801.66;5070023;28;20231;-56
2023/03/25 05:20:33;;;;;;;1.00;0.70;;;10.50;99.90;;;-141.84;61.16;19791.47;5069308;28;20593;-55
2023/03/25 05:23:02;;;;;;;2.07;0.67;;;10.40;99.90;;;-141.84;60.61;19779.28;5069273;28;20225;-57
2023/03/25 05:25:33;;;;;;;0.93;0.70;;;10.50;99.90;;;-141.84;60.80;19791.47;5069363;28;20234;-56
2023/03/25 05:28:04;;;;;;;3.03;0.93;;;10.50;99.90;;;-141.84;60.77;19779.28;5069185;28;20232;-55
2023/03/25 05:30:37;;;;;;;1.60;0.50;;;10.40;99.90;;;-141.84;61.09;19752.88;5073075;28;20224;-54
2023/03/25 05:33:06;;;;;;;1.30;0.60;;;10.40;99.90;;;-141.84;61.19;19763.03;5073152;28;20596;-55
2023/03/25 05:35:34;;;;;;;1.63;0.73;;;10.30;99.90;;;-141.84;61.71;19738.66;5072959;28;20229;-54
2023/03/25 05:38:02;;;;;;;5.43;0.60;;;10.30;99.90;;;-141.84;61.16;19740.69;5073370;28;20211;-55
2023/03/25 05:40:31;;;;;;;1.13;0.60;;;10.20;99.90;;;-141.84;61.34;19791.47;5073492;28;20200;-57
2023/03/25 05:42:59;;;;;;;1.23;0.53;;;10.20;99.90;;;-141.84;61.20;19761.00;5072396;28;20224;-55
2023/03/25 05:45:29;;;;;;;1.27;0.60;;;10.20;99.90;;;-141.84;61.24;19767.09;5072504;28;20244;-56
2023/03/25 05:47:59;;;;;;;1.47;0.50;;;10.10;99.90;;;-141.84;61.04;19754.91;5072909;28;20314;-55
2023/03/25 05:50:28;;;;;;;1.13;0.60;;;10.10;99.90;;;-141.84;62.22;19720.34;5072870;28;20251;-56
2023/03/25 05:52:58;;;;;;;1.07;0.60;;;10.00;99.90;;;-141.84;61.20;19720.34;5073138;28;20610;-52
2023/03/25 05:55:27;;;;;;;0.67;0.60;;;10.00;99.90;;;-141.84;60.44;19740.69;5072833;28;20208;-55
2023/03/25 05:57:57;;;;;;;0.93;0.60;;;10.10;99.90;;;-141.84;60.59;19765.06;5072071;28;20701;-54
2023/03/25 06:00:25;;;;;;;4.30;0.90;;;10.10;99.90;;;-141.84;60.84;19738.66;5072361;28;20229;-53
2023/03/25 06:02:55;;;;;;;1.73;0.90;;;10.00;99.90;;;-141.84;60.83;19724.41;5072161;28;20224;-55
2023/03/25 06:05:23;;;;;;;2.43;0.80;;;10.00;99.90;;;-141.84;60.30;19744.75;5072293;28;20240;-57
2023/03/25 06:07:54;;;;;;;1.10;0.60;;;10.10;99.90;;;-141.84;60.00;19748.81;5052675;28;20316;-56
2023/03/25 06:10:23;;;;;;;4.37;0.73;;;10.20;99.90;;;-141.84;59.22;19748.81;5052172;28;20225;-54
2023/03/25 06:12:52;;;;;;;1.77;0.83;;;10.20;99.90;;;-141.84;59.37;19740.69;5051757;28;20416;-54
2023/03/25 06:15:27;;;;;;;1.93;0.93;;;10.30;99.90;;;-141.84;59.18;19807.75;5052070;28;20303;-57
2023/03/25 06:17:57;;;;;;;1.57;1.17;;;10.30;99.90;;;-141.84;58.82;19809.78;5052081;28;20263;-56
2023/03/25 06:20:26;;;;;;;1.93;0.80;;;10.50;99.90;;;-141.84;58.60;19846.34;5052370;28;20252;-54
2023/03/25 06:22:55;;;;;;;2.77;1.00;;;10.70;99.90;;;-141.84;57.38;19895.13;5072091;28;20617;-56
2023/03/25 06:25:25;;;;;;;2.10;0.70;;;10.90;99.90;;;-141.84;57.05;19913.44;5072207;28;20235;-54
2023/03/25 06:27:54;;;;;;;2.00;0.77;;;11.10;99.90;;;-141.84;56.47;19927.66;5071307;28;20229;-56
2023/03/25 06:30:23;;;;;;;2.47;0.87;;;11.20;99.90;;;-141.84;55.98;19956.09;5071649;28;20285;-56
2023/03/25 06:32:54;;;;;;;2.17;0.80;;;11.40;99.90;;;-141.84;55.92;19992.69;5071937;28;20220;-57
2023/03/25 06:35:24;;;;;;;0.87;0.80;;;11.60;99.90;;;-141.84;55.40;19974.41;5071571;28;20646;-57
2023/03/25 06:37:52;;;;;;;2.57;0.70;;;11.60;99.90;;;-141.84;55.73;19984.56;5072305;28;20628;-56
2023/03/25 06:40:21;;;;;;;2.43;0.80;;;11.60;99.90;;;-141.84;55.90;19952.03;5070377;28;20225;-53
2023/03/25 06:42:49;;;;;;;2.60;0.80;;;11.60;99.90;;;-141.84;56.84;19960.16;5071566;28;20602;-56
2023/03/25 06:45:17;;;;;;;1.47;0.80;;;11.50;99.90;;;-141.84;58.22;19897.16;5071436;28;20254;-57
2023/03/25 06:47:45;;;;;;;2.43;1.00;;;11.30;99.90;;;-141.84;58.57;19862.63;5071644;28;20224;-56
2023/03/25 06:50:14;;;;;;;1.30;0.70;;;11.10;99.90;;;-141.84;58.35;19838.22;5071692;28;20637;-55
2023/03/25 06:52:43;;;;;;;2.70;1.10;;;11.10;99.90;;;-141.84;58.48;19899.19;5071596;28;20204;-55
2023/03/25 06:55:12;;;;;;;2.70;0.90;;;11.10;99.90;;;-141.84;58.74;19893.09;5071149;28;20233;-56
2023/03/25 06:57:42;;;;;;;3.17;1.00;;;11.20;99.90;;;-141.84;58.40;19931.72;5070623;28;20224;-55
2023/03/25 07:00:12;;;;;;;3.13;0.90;;;11.20;99.90;;;-141.84;59.18;19891.06;5071152;28;20716;-55
2023/03/25 07:02:40;;;;;;;2.10;1.10;;;11.10;99.90;;;-141.84;58.36;19915.47;5079225;28;20235;-55
2023/03/25 07:05:09;;;;;;;2.57;0.83;;;11.10;99.90;;;-141.84;58.29;19903.25;5086821;28;20666;-57
2023/03/25 07:07:37;;;;;;;1.93;1.13;;;11.10;99.90;;;-141.84;57.96;19917.50;5071643;28;20228;-57
2023/03/25 07:10:08;;;;;;;2.90;1.60;;;11.10;99.90;;;-141.84;57.28;19952.03;5071077;28;20231;-56
2023/03/25 07:12:36;;;;;;;2.30;1.00;;;11.20;99.90;;;-141.84;56.63;19921.56;5070648;28;20235;-54
2023/03/25 07:15:06;;;;;;;2.53;0.80;;;11.40;99.90;;;-141.84;56.40;19962.19;5070956;28;20625;-57
2023/03/25 07:17:35;;;;;;;1.70;0.80;;;11.40;99.90;;;-141.84;56.72;19966.28;5070554;28;20719;-55
2023/03/25 07:20:04;;;;;;;2.10;1.10;;;11.50;99.90;;;-141.84;57.14;19960.16;5070920;28;20223;-53
2023/03/25 07:22:32;;;;;;;2.03;0.73;;;11.60;99.90;;;-141.84;56.88;19941.88;5070529;28;20235;-53
2023/03/25 07:25:01;;;;;;;1.77;0.70;;;11.60;99.90;;;-141.84;58.95;19901.22;5070449;28;20228;-57
2023/03/25 07:27:30;;;;;;;2.03;0.80;;;11.40;99.90;;;-141.84;60.38;19897.16;5070462;28;20224;-58
2023/03/25 07:29:58;;;;;;;2.60;2.40;;;11.30;99.90;;;-141.84;62.67;19836.19;5070492;28;20227;-56
2023/03/25 07:32:26;;;;;;;1.33;0.70;;;11.10;99.90;;;-141.84;62.47;19811.81;5070616;28;20217;-56
2023/03/25 07:34:55;;;;;;;2.43;0.97;;;10.80;99.90;;;-141.84;64.38;19783.34;5071428;28;20597;-54
2023/03/25 07:37:23;;;;;;;2.00;1.00;;;10.60;99.90;;;-141.84;64.55;19758.97;5035830;28;20223;-55
2023/03/25 07:39:51;;;;;;;1.27;0.90;;;10.50;99.90;;;-141.84;64.31;19807.75;5070554;28;20720;-55
2023/03/25 07:42:19;;;;;;;1.37;0.70;;;10.50;99.90;;;-141.84;64.12;19805.72;5070132;28;20236;-58
2023/03/25 07:44:49;;;;;;;2.17;0.80;;;10.40;99.90;;;-141.84;63.14;19801.66;5070501;28;20266;-56
2023/03/25 07:47:17;;;;;;;1.10;0.70;;;10.50;99.90;;;-141.84;62.85;19797.59;5070366;28;20240;-55
2023/03/25 07:49:46;;;;;;;0.97;0.60;;;10.40;99.90;;;-141.84;61.73;19840.25;5071204;28;20205;-57
2023/03/25 07:52:14;;;;;;;1.07;0.60;;;10.60;99.90;;;-141.84;62.07;19860.59;5069944;28;20231;-56
2023/03/25 07:54:42;;;;;;;0.90;0.60;;;10.60;99.90;;;-141.84;61.31;19821.97;5070080;28;20247;-56
2023/03/25 07:57:12;;;;;;;1.87;0.70;;;10.70;99.90;;;-141.84;61.27;19874.81;5069851;28;20232;-55
2023/03/25 07:59:40;;;;;;;2.40;1.07;;;10.70;99.90;;;-141.84;61.79;19856.53;5069971;28;20228;-56
2023/03/25 08:02:13;;;;;;;1.07;0.83;;;10.80;99.90;;;-141.84;60.66;19901.22;5074177;28;20569;-56
2023/03/25 08:04:41;;;;;;;1.30;0.70;;;10.90;99.90;;;-141.84;59.98;19862.63;5090089;28;20184;-55
2023/03/25 08:07:10;;;;;;;1.07;0.80;;;10.90;99.90;;;-141.84;60.07;19889.03;5069887;28;20562;-57
2023/03/25 08:09:38;;;;;;;1.63;0.60;;;11.00;99.90;;;-141.84;60.94;19919.53;5070150;28;20230;-55
2023/03/25 08:12:08;;;;;;;1.20;0.70;;;11.00;99.90;;;-141.84;60.21;19893.09;5069745;28;20232;-55
2023/03/25 08:14:36;;;;;;;1.10;0.40;;;11.00;99.90;;;-141.84;59.67;19927.66;5069961;28;20601;-57
2023/03/25 08:17:05;;;;;;;1.93;0.90;;;11.10;99.90;;;-141.84;59.43;19907.31;5070181;28;20204;-54
2023/03/25 08:19:35;;;;;;;1.07;0.60;;;11.20;99.90;;;-141.84;59.20;19919.53;5070914;28;20557;-55
2023/03/25 08:22:04;;;;;;;1.37;0.70;;;11.20;99.90;;;-141.84;59.35;19939.84;5069775;28;20319;-55
2023/03/25 08:24:32;;;;;;;1.63;0.70;;;11.30;99.90;;;-141.84;59.72;19909.34;5070053;28;20228;-56
2023/03/25 08:27:01;;;;;;;1.43;0.70;;;11.30;99.90;;;-141.84;59.89;19903.25;5069879;28;20610;-58
2023/03/25 08:29:42;;;;;;;1.73;0.70;;;11.30;99.90;;;-141.84;60.81;19919.53;5069770;28;20228;-57
2023/03/25 08:32:10;;;;;;;2.10;0.90;;;11.30;99.90;;;-141.84;61.41;19915.47;5070029;28;20200;-55
2023/03/25 08:34:40;;;;;;;2.43;1.07;;;11.20;99.90;;;-141.84;61.38;19874.81;5070538;28;20669;-57
2023/03/25 08:37:08;;;;;;;1.43;0.70;;;11.30;99.90;;;-141.84;60.50;19974.41;5070157;28;20600;-57
2023/03/25 08:39:38;;;;;;;0.70;0.47;;;11.40;99.90;;;-141.84;59.84;19919.53;5070022;28;20797;-57
2023/03/25 08:42:08;;;;;;;1.87;0.80;;;11.50;99.90;;;-141.84;60.55;19927.66;5070081;28;20766;-56
2023/03/25 08:44:36;;;;;;;1.20;0.80;;;11.50;99.90;;;-141.84;59.71;19966.28;5070295;28;20230;-57
2023/03/25 08:47:04;;;;;;;1.87;0.53;;;11.50;99.90;;;-141.84;60.76;19899.19;5070321;28;20207;-57
2023/03/25 08:49:33;;;;;;;1.23;0.70;;;11.40;99.90;;;-141.84;61.49;19907.31;5069815;28;20634;-57
2023/03/25 08:52:07;;;;;;;1.10;0.60;;;11.30;99.90;;;-141.84;62.82;19866.69;5069784;28;20731;-55
2023/03/25 08:54:35;;;;;;;0.80;0.70;;;11.10;99.90;;;-141.84;63.99;19882.94;5069503;28;20225;-56
2023/03/25 08:57:03;;;;;;;1.83;0.87;;;11.10;99.90;;;-141.84;64.73;19819.94;5069670;28;20231;-57
2023/03/25 08:59:31;;;;;;;1.87;0.90;;;11.00;99.90;;;-141.84;65.90;19846.34;5069360;28;20228;-55
2023/03/25 09:02:00;;;;;;;1.30;0.97;;;11.00;99.90;;;-141.84;66.20;19803.69;5069504;28;20324;-56
2023/03/25 09:04:29;;;;;;;2.03;1.07;;;11.00;99.90;;;-141.84;67.59;19783.34;5071018;28;20206;-58
2023/03/25 09:06:58;;;;;;;1.40;0.80;;;10.70;99.90;;;-141.84;65.95;19813.84;5072198;28;20242;-58
2023/03/25 09:09:41;;;;;;;1.03;0.90;;;10.70;99.90;;;-141.84;65.54;19826.03;5071883;28;20236;-56
2023/03/25 09:12:10;;;;;;;1.90;1.03;;;10.80;99.90;;;-141.84;64.23;19870.75;5071365;28;20236;-57
2023/03/25 09:14:38;;;;;;;1.50;1.03;;;11.00;99.90;;;-141.84;63.00;19911.41;5072779;28;20221;-54
2023/03/25 09:17:08;;;;;;;1.83;0.93;;;11.30;99.90;;;-141.84;61.74;19984.56;5073319;28;20197;-57
2023/03/25 09:19:37;;;;;;;1.57;0.73;;;11.60;99.90;;;-141.84;59.67;20013.00;5073582;28;20185;-56
2023/03/25 09:22:07;;;;;;;2.33;1.00;;;12.00;99.90;;;-141.84;58.25;20061.78;5072813;28;20757;-55
2023/03/25 09:24:35;;;;;;;1.70;1.27;;;12.20;99.90;;;-141.84;57.69;20122.78;5072730;28;20252;-55
2023/03/25 09:27:04;;;;;;;2.10;1.20;;;12.60;99.90;;;-141.84;56.77;20110.56;5072994;28;20224;-57
2023/03/25 09:29:33;;;;;;;1.13;0.90;;;12.70;99.90;;;-141.84;56.06;20137.00;5072385;28;20277;-56
2023/03/25 09:32:01;;;;;;;1.00;0.90;;;12.80;99.90;;;-141.84;57.09;20065.84;5072834;28;20223;-54
2023/03/25 09:34:29;;;;;;;0.93;0.80;;;12.50;99.90;;;-141.84;55.99;20078.06;5072968;28;20208;-55
2023/03/25 09:36:58;;;;;;;4.23;1.00;;;12.50;99.90;;;-141.84;56.39;20035.38;5072785;28;20307;-57
2023/03/25 09:39:26;;;;;;;0.90;0.80;;;12.30;99.90;;;-141.84;55.59;20013.00;5072386;28;20239;-56
2023/03/25 09:42:19;;;;;;;2.50;1.40;;;12.10;99.90;;;-141.84;56.08;20000.81;5072607;28;20220;-55
2023/03/25 09:44:59;;;;;;;2.17;1.20;;;12.10;99.90;;;-141.84;56.67;19966.28;5072561;28;20246;-54
2023/03/25 09:47:40;;;;;;;2.60;0.90;;;11.90;99.90;;;-141.84;57.05;19980.50;5072671;28;20244;-57
2023/03/25 09:50:15;;;;;;;2.57;1.00;;;11.80;99.90;;;-141.84;56.60;19998.78;5072626;28;20204;-57
2023/03/25 09:52:54;;;;;;;0.80;0.70;;;11.90;99.90;;;-141.84;57.15;20008.94;5072729;28;20211;-56
2023/03/25 09:55:28;;;;;;;1.47;1.00;;;11.80;99.90;;;-141.84;56.67;19996.75;5072665;28;20213;-54
2023/03/25 09:58:05;;;;;;;1.93;1.00;;;11.90;99.90;;;-141.84;56.56;20031.31;5069883;28;20427;-57
2023/03/25 10:00:34;;;;;;;1.80;0.70;;;12.00;99.90;;;-141.84;55.40;20110.56;5071086;28;20216;-55
2023/03/25 10:03:24;;;;;;;1.03;0.80;;;12.20;99.90;;;-141.84;54.24;20118.69;5072498;28;20301;-56
2023/03/25 10:06:17;;;;;;;0.90;0.70;;;12.60;99.90;;;-141.84;53.94;20139.03;5047943;28;20228;-53
2023/03/25 10:09:04;;;;;;;1.27;0.80;;;12.60;99.90;;;-141.84;54.02;20122.78;5071014;28;20242;-52
2023/03/25 10:11:43;;;;;;;1.30;0.70;;;12.60;99.90;;;-141.84;53.42;20147.16;5066232;28;20266;-56
2023/03/25 10:14:20;;;;;;;1.90;0.73;;;12.80;99.90;;;-141.84;52.71;20191.88;5067808;28;20217;-55
2023/03/25 10:17:05;;;;;;;2.70;0.90;;;12.90;99.90;;;-141.84;51.00;20267.09;5069446;28;20239;-54
2023/03/25 10:19:53;;;;;;;1.07;0.97;;;13.40;99.90;;;-141.84;49.38;20313.84;5070441;28;20734;-58
2023/03/25 10:22:31;;;;;;;2.13;0.77;;;13.70;99.90;;;-141.84;49.02;20315.88;5070015;28;20227;-57
2023/03/25 10:25:04;;;;;;;1.15;0.70;;;13.50;99.90;;;-141.84;48.64;20295.53;5071082;28;20236;-57
2023/03/25 10:27:38;;;;;;;1.38;1.27;;;13.80;99.90;;;-141.84;49.43;20232.53;5072447;28;20208;-57